Time;durP1;ratioP1;P1;durP2;ratioP2;P2;SDS_P1;SDS_P2;PMS_P1;PMS_P2;Temp;Humidity;BMP_temperature;BMP_pressure;BME280_temperature;BME280_humidity;BME280_pressure;Samples;Min_cycle;Max_cycle;Signal;HPM_P1;HPM_P2
2022/08/24 00:01:09;;;;;;;2.27;2.17;;;20.50;99.90;;;;;;5079332;28;20187;-67
2022/08/24 00:03:36;;;;;;;4.13;2.33;;;20.50;99.90;;;;;;5079266;28;20293;-68
2022/08/24 00:06:03;;;;;;;3.73;2.43;;;20.50;99.90;;;;;;5078928;28;20178;-68
2022/08/24 00:08:30;;;;;;;2.30;2.10;;;20.40;99.90;;;;;;5078872;28;20171;-68
2022/08/24 00:10:56;;;;;;;2.63;2.20;;;20.30;99.90;;;;;;5079603;28;20589;-67
2022/08/24 00:13:22;;;;;;;4.07;2.80;;;20.20;99.90;;;;;;5078664;28;20459;-68
2022/08/24 00:15:48;;;;;;;2.70;2.50;;;20.10;99.90;;;;;;5078146;28;20221;-67
2022/08/24 00:18:14;;;;;;;2.73;2.37;;;20.10;99.90;;;;;;5078066;28;20187;-66
2022/08/24 00:20:40;;;;;;;2.63;2.43;;;20.00;99.90;;;;;;5077528;28;20481;-72
2022/08/24 00:23:06;;;;;;;3.87;3.57;;;19.80;99.90;;;;;;5079447;28;20236;-73
2022/08/24 00:25:33;;;;;;;4.17;2.60;;;19.60;99.90;;;;;;5078461;28;20176;-72
2022/08/24 00:28:00;;;;;;;3.17;2.97;;;18.60;99.90;;;;;;5076521;28;20183;-77
2022/08/24 00:30:26;;;;;;;2.50;2.33;;;17.20;99.90;;;;;;5078428;28;20225;-68
2022/08/24 00:32:53;;;;;;;3.97;3.13;;;20.30;99.90;;;;;;5078580;28;20175;-68
2022/08/24 00:35:19;;;;;;;2.57;2.37;;;20.20;99.90;;;;;;5078191;28;21012;-70
2022/08/24 00:37:47;;;;;;;4.60;2.50;;;20.20;99.90;;;;;;5078351;28;20220;-67
2022/08/24 00:40:27;;;;;;;5.67;3.40;;;20.20;99.90;;;;;;5078778;28;20172;-70
2022/08/24 00:42:54;;;;;;;2.90;2.70;;;20.10;99.90;;;;;;5078853;28;20187;-67
2022/08/24 00:45:23;;;;;;;3.43;2.33;;;20.10;99.90;;;;;;5078179;28;20288;-67
2022/08/24 00:47:55;;;;;;;2.03;1.93;;;20.10;99.90;;;;;;5079232;28;20179;-67
2022/08/24 00:51:04;;;;;;;3.43;2.57;;;20.10;99.90;;;;;;5078451;28;20261;-67
2022/08/24 00:53:41;;;;;;;2.73;2.53;;;20.10;99.90;;;;;;5071699;28;20199;-69
2022/08/24 00:56:30;;;;;;;7.27;2.83;;;20.00;99.90;;;;;;5077945;28;20270;-69
2022/08/24 00:59:14;;;;;;;10.57;3.70;;;20.00;99.90;;;;;;5076920;28;20503;-73
2022/08/24 01:01:43;;;;;;;5.00;3.07;;;20.00;99.90;;;;;;5081321;28;20211;-72
2022/08/24 01:04:14;;;;;;;3.47;2.13;;;19.90;99.90;;;;;;5081371;28;20530;-68
2022/08/24 01:06:41;;;;;;;2.40;2.30;;;19.90;99.90;;;;;;5077751;28;20259;-69
2022/08/24 01:09:06;;;;;;;2.30;2.20;;;19.90;99.90;;;;;;5078097;28;20179;-67
2022/08/24 01:11:34;;;;;;;2.37;2.17;;;19.80;99.90;;;;;;5077583;28;20206;-67
2022/08/24 01:14:01;;;;;;;3.57;3.23;;;19.70;99.90;;;;;;5076652;28;20179;-72
2022/08/24 01:19:34;;;;;;;2.97;2.73;;;19.60;99.90;;;;;;5077145;28;20186;-68
2022/08/24 01:22:19;;;;;;;3.17;2.63;;;19.50;99.90;;;;;;5081829;28;20529;-69
2022/08/24 01:24:45;;;;;;;8.23;2.67;;;19.40;99.90;;;;;;5077797;28;20202;-67
2022/08/24 01:27:13;;;;;;;2.60;2.50;;;19.30;99.90;;;;;;5077097;28;20167;-66
2022/08/24 01:29:41;;;;;;;2.87;2.67;;;19.10;99.90;;;;;;5077253;28;20613;-66
2022/08/24 01:32:07;;;;;;;4.20;3.27;;;18.90;99.90;;;;;;5076649;28;20187;-66
2022/08/24 01:34:34;;;;;;;2.43;2.33;;;18.80;99.90;;;;;;5078091;28;20172;-72
2022/08/24 01:37:01;;;;;;;3.40;2.87;;;18.30;99.90;;;;;;5078032;28;20190;-69
2022/08/24 01:39:39;;;;;;;7.33;2.80;;;19.50;99.90;;;;;;5077563;28;20175;-67
2022/08/24 01:42:06;;;;;;;2.60;2.40;;;19.50;99.90;;;;;;5076867;28;20236;-71
2022/08/24 01:44:34;;;;;;;3.30;3.10;;;19.50;99.90;;;;;;5077416;28;20199;-73
2022/08/24 01:47:02;;;;;;;3.13;2.77;;;19.40;99.90;;;;;;5076323;28;20171;-69
2022/08/24 01:49:32;;;;;;;2.63;2.27;;;19.40;99.90;;;;;;5077713;28;20461;-71
2022/08/24 01:51:58;;;;;;;10.57;2.90;;;19.40;99.90;;;;;;5077321;28;20182;-66
2022/08/24 01:54:25;;;;;;;4.20;2.37;;;19.40;99.90;;;;;;5076830;28;20187;-67
2022/08/24 01:56:51;;;;;;;3.17;2.67;;;19.40;99.90;;;;;;5076078;28;20237;-67
2022/08/24 01:59:19;;;;;;;3.13;2.93;;;19.30;99.90;;;;;;5077199;28;20187;-67
2022/08/24 02:01:52;;;;;;;3.23;3.03;;;19.30;99.90;;;;;;5076314;28;20212;-68
2022/08/24 02:04:18;;;;;;;2.93;2.73;;;19.30;99.90;;;;;;5075768;28;20229;-67
2022/08/24 02:06:44;;;;;;;2.10;2.00;;;19.20;99.90;;;;;;5076259;28;20270;-66
2022/08/24 02:09:10;;;;;;;3.97;3.03;;;19.20;99.90;;;;;;5076951;28;20555;-68
2022/08/24 02:11:38;;;;;;;2.80;2.60;;;19.20;99.90;;;;;;5076784;28;20250;-70
2022/08/24 02:14:04;;;;;;;3.50;2.63;;;19.20;99.90;;;;;;5076523;28;20175;-71
2022/08/24 02:16:30;;;;;;;2.60;2.40;;;19.10;99.90;;;;;;5076875;28;20194;-70
2022/08/24 02:18:56;;;;;;;3.87;3.00;;;19.10;99.90;;;;;;5077044;28;20204;-65
2022/08/24 02:21:22;;;;;;;2.20;2.10;;;19.10;99.90;;;;;;5076350;28;20182;-72
2022/08/24 02:23:49;;;;;;;2.17;2.07;;;19.00;99.90;;;;;;5076837;28;20268;-68
2022/08/24 02:26:14;;;;;;;2.77;2.67;;;19.00;99.90;;;;;;5075945;28;20610;-70
2022/08/24 02:28:40;;;;;;;3.73;2.97;;;19.00;99.90;;;;;;5077495;28;20179;-67
2022/08/24 02:31:08;;;;;;;2.47;2.37;;;18.90;99.90;;;;;;5076244;28;20557;-67
2022/08/24 02:33:34;;;;;;;3.20;3.00;;;18.90;99.90;;;;;;5077129;28;20194;-70
2022/08/24 02:36:01;;;;;;;3.07;2.60;;;18.70;99.90;;;;;;5076929;28;20187;-67
2022/08/24 02:38:27;;;;;;;5.17;2.80;;;18.60;99.90;;;;;;5076821;28;20201;-73
2022/08/24 02:40:53;;;;;;;2.63;2.50;;;18.60;99.90;;;;;;5082241;28;20252;-69
2022/08/24 02:43:19;;;;;;;2.97;2.60;;;18.50;99.90;;;;;;5076122;28;20218;-67
2022/08/24 02:45:45;;;;;;;3.20;2.80;;;18.30;99.90;;;;;;5075723;28;20171;-68
2022/08/24 02:48:12;;;;;;;3.00;2.13;;;17.70;99.90;;;;;;5076015;28;20179;-70
2022/08/24 02:50:40;;;;;;;3.67;2.50;;;16.30;99.90;;;;;;5075548;28;20178;-67
2022/08/24 02:53:06;;;;;;;2.60;2.40;;;16.60;99.90;;;;;;5076981;28;20190;-71
2022/08/24 02:55:32;;;;;;;2.00;1.90;;;16.50;99.90;;;;;;5076234;28;20180;-70
2022/08/24 02:57:58;;;;;;;2.20;2.10;;;18.90;99.90;;;;;;5075094;28;20190;-66
2022/08/24 03:00:23;;;;;;;2.90;2.17;;;18.90;99.90;;;;;;5076392;28;20213;-68
2022/08/24 03:02:50;;;;;;;3.50;2.33;;;18.20;99.90;;;;;;5075735;28;20483;-68
2022/08/24 03:05:16;;;;;;;2.80;2.60;;;18.80;99.90;;;;;;5075235;28;20265;-66
2022/08/24 03:07:42;;;;;;;3.33;2.43;;;18.80;99.90;;;;;;5076821;28;20254;-71
2022/08/24 03:10:09;;;;;;;2.60;2.50;;;18.80;99.90;;;;;;5080176;28;20255;-66
2022/08/24 03:12:35;;;;;;;2.40;2.30;;;18.80;99.90;;;;;;5080172;28;20179;-66
2022/08/24 03:15:02;;;;;;;3.47;2.43;;;18.80;99.90;;;;;;5080337;28;20237;-67
2022/08/24 03:17:32;;;;;;;3.17;2.20;;;18.70;99.90;;;;;;5078644;28;20329;-67
2022/08/24 03:19:59;;;;;;;2.00;1.90;;;18.80;99.90;;;;;;5079787;28;20217;-66
2022/08/24 03:22:26;;;;;;;2.43;2.10;;;18.80;99.90;;;;;;5079682;28;20179;-67
2022/08/24 03:24:52;;;;;;;2.07;1.97;;;18.70;99.90;;;;;;5079397;28;20238;-67
2022/08/24 03:27:18;;;;;;;2.33;2.13;;;18.70;99.90;;;;;;5080080;28;20175;-66
2022/08/24 03:29:44;;;;;;;2.07;1.97;;;18.70;99.90;;;;;;5084508;28;20232;-66
2022/08/24 03:32:09;;;;;;;3.13;2.43;;;18.60;99.90;;;;;;5080000;28;20191;-66
2022/08/24 03:34:36;;;;;;;3.17;2.23;;;18.60;99.90;;;;;;5079097;28;20553;-66
2022/08/24 03:37:03;;;;;;;2.67;2.47;;;18.60;99.90;;;;;;5079438;28;20185;-66
2022/08/24 03:39:29;;;;;;;3.70;2.67;;;18.60;99.90;;;;;;5079518;28;20243;-67
2022/08/24 03:41:55;;;;;;;2.13;1.90;;;18.60;99.90;;;;;;5078840;28;20582;-73
2022/08/24 03:44:20;;;;;;;2.37;2.27;;;18.60;99.90;;;;;;5079264;28;20203;-71
2022/08/24 03:46:47;;;;;;;5.77;2.10;;;18.50;99.90;;;;;;5080150;28;20483;-69
2022/08/24 03:49:13;;;;;;;2.40;2.20;;;18.40;99.90;;;;;;5078646;28;20606;-70
2022/08/24 03:51:39;;;;;;;1.80;1.70;;;18.30;99.90;;;;;;5079206;28;20179;-68
2022/08/24 03:54:08;;;;;;;2.80;2.53;;;18.20;99.90;;;;;;5077600;28;20646;-66
2022/08/24 03:56:34;;;;;;;2.50;2.30;;;18.00;99.90;;;;;;5079237;28;20263;-66
2022/08/24 03:58:59;;;;;;;2.87;2.27;;;17.80;99.90;;;;;;5084070;28;20190;-72
2022/08/24 04:01:26;;;;;;;2.23;1.80;;;17.40;99.90;;;;;;5079287;28;20203;-68
2022/08/24 04:03:52;;;;;;;4.03;2.37;;;16.80;99.90;;;;;;5078723;28;20204;-69
2022/08/24 04:06:20;;;;;;;2.67;2.47;;;16.50;99.90;;;;;;5078866;28;20187;-69
2022/08/24 04:08:46;;;;;;;2.00;1.90;;;16.40;99.90;;;;;;5079103;28;20175;-67
2022/08/24 04:11:16;;;;;;;3.20;2.90;;;15.70;99.90;;;;;;5078904;28;20185;-70
2022/08/24 04:13:43;;;;;;;2.00;1.90;;;18.10;99.90;;;;;;5078723;28;20180;-72
2022/08/24 04:16:11;;;;;;;2.53;2.40;;;18.20;99.90;;;;;;5078822;28;20270;-70
2022/08/24 04:18:38;;;;;;;2.53;2.33;;;18.20;99.90;;;;;;5078642;28;20250;-66
2022/08/24 04:21:05;;;;;;;4.00;2.63;;;18.20;99.90;;;;;;5079420;28;20184;-72
2022/08/24 04:23:32;;;;;;;2.17;2.03;;;18.20;99.90;;;;;;5078872;28;20211;-71
2022/08/24 04:26:03;;;;;;;2.03;1.93;;;18.10;99.90;;;;;;5079208;28;20186;-76
2022/08/24 04:28:29;;;;;;;2.77;2.57;;;18.10;99.90;;;;;;5077758;28;20186;-68
2022/08/24 04:30:56;;;;;;;2.50;2.20;;;18.20;99.90;;;;;;5079040;28;20190;-67
2022/08/24 04:33:22;;;;;;;2.80;2.60;;;18.10;99.90;;;;;;5078158;28;20254;-67
2022/08/24 04:35:49;;;;;;;2.63;2.43;;;18.10;99.90;;;;;;5077582;28;20523;-68
2022/08/24 04:38:16;;;;;;;3.07;2.23;;;18.10;99.90;;;;;;5092095;28;20175;-66
2022/08/24 04:40:44;;;;;;;16.13;2.30;;;18.20;99.90;;;;;;5078119;28;20188;-70
2022/08/24 04:43:13;;;;;;;2.83;2.20;;;18.10;99.90;;;;;;5079427;28;20178;-67
2022/08/24 04:45:40;;;;;;;2.00;1.90;;;18.10;99.90;;;;;;5082098;28;20199;-66
2022/08/24 04:48:07;;;;;;;1.97;1.77;;;18.00;99.90;;;;;;5082828;28;20182;-67
2022/08/24 04:50:34;;;;;;;2.10;1.87;;;18.00;99.90;;;;;;5081782;28;20320;-67
2022/08/24 04:53:01;;;;;;;2.63;2.43;;;18.00;99.90;;;;;;5077983;28;20171;-70
2022/08/24 04:55:27;;;;;;;3.17;2.67;;;17.90;99.90;;;;;;5077679;28;20180;-67
2022/08/24 04:57:53;;;;;;;2.03;1.90;;;17.90;99.90;;;;;;5077660;28;20255;-67
2022/08/24 05:00:19;;;;;;;3.70;2.27;;;18.00;99.90;;;;;;5078667;28;20195;-69
2022/08/24 05:02:45;;;;;;;3.23;3.03;;;18.00;99.90;;;;;;5087968;28;20579;-71
2022/08/24 05:05:12;;;;;;;1.77;1.67;;;17.90;99.90;;;;;;5077794;28;20207;-71
2022/08/24 05:07:38;;;;;;;2.20;2.10;;;18.00;99.90;;;;;;5077227;28;20275;-73
2022/08/24 05:10:05;;;;;;;8.23;2.50;;;17.90;99.90;;;;;;5077709;28;20270;-69
2022/08/24 05:12:31;;;;;;;10.30;3.10;;;18.00;99.90;;;;;;5078266;28;20178;-75
2022/08/24 05:14:57;;;;;;;3.07;2.40;;;18.00;99.90;;;;;;5078434;28;20459;-68
2022/08/24 05:17:25;;;;;;;2.13;2.00;;;18.00;99.90;;;;;;5078072;28;20250;-69
2022/08/24 05:19:51;;;;;;;2.47;2.30;;;18.00;99.90;;;;;;5077248;28;20202;-74
2022/08/24 05:22:17;;;;;;;3.30;3.10;;;18.00;99.90;;;;;;5078046;28;20214;-73
2022/08/24 05:24:43;;;;;;;3.57;3.23;;;18.00;99.90;;;;;;5076697;28;20291;-72
2022/08/24 05:27:09;;;;;;;2.87;2.60;;;18.00;99.90;;;;;;5077885;28;20175;-75
2022/08/24 05:29:36;;;;;;;5.90;3.30;;;18.10;99.90;;;;;;5078298;28;20542;-68
2022/08/24 05:32:02;;;;;;;3.67;3.37;;;18.10;99.90;;;;;;5085612;28;20193;-66
2022/08/24 05:34:29;;;;;;;4.20;3.80;;;18.20;99.90;;;;;;5083888;28;20174;-65
2022/08/24 05:36:54;;;;;;;3.80;3.47;;;18.20;99.90;;;;;;5095521;28;20479;-64
2022/08/24 05:39:20;;;;;;;3.93;3.63;;;18.20;99.90;;;;;;5093472;28;20187;-73
2022/08/24 05:41:46;;;;;;;3.83;3.50;;;18.30;99.90;;;;;;5077357;28;20197;-76
2022/08/24 05:44:14;;;;;;;6.13;3.13;;;18.40;99.90;;;;;;5078519;28;20222;-72
2022/08/24 05:46:41;;;;;;;2.87;2.67;;;18.50;99.90;;;;;;5084111;28;20551;-69
2022/08/24 05:49:08;;;;;;;7.60;3.90;;;18.50;99.90;;;;;;5076559;28;20541;-69
2022/08/24 05:51:34;;;;;;;4.23;3.13;;;18.60;99.90;;;;;;5077700;28;20597;-72
2022/08/24 05:54:02;;;;;;;3.83;3.27;;;18.70;99.90;;;;;;5077476;28;20188;-67
2022/08/24 05:56:28;;;;;;;3.90;3.60;;;18.70;99.90;;;;;;5074956;28;20606;-69
2022/08/24 05:58:54;;;;;;;4.43;3.93;;;18.70;99.90;;;;;;5076731;28;20202;-64
2022/08/24 06:01:23;;;;;;;11.97;4.53;;;18.50;99.90;;;;;;5077746;28;20270;-71
2022/08/24 06:03:50;;;;;;;4.57;4.27;;;18.20;99.90;;;;;;5076382;28;20249;-71
2022/08/24 06:06:18;;;;;;;9.73;8.20;;;-31.80;99.90;;;;;;5076750;28;20186;-68
2022/08/24 06:08:46;;;;;;;7.80;7.10;;;-40.00;99.90;;;;;;5076235;28;20183;-71
2022/08/24 06:11:31;;;;;;;9.83;7.63;;;-40.00;99.90;;;;;;5076583;28;20225;-77
2022/08/24 06:14:00;;;;;;;12.07;9.93;;;-40.00;99.90;;;;;;5083755;28;20532;-71
2022/08/24 06:16:26;;;;;;;11.90;9.27;;;-40.00;99.90;;;;;;5076912;28;20198;-74
2022/08/24 06:18:52;;;;;;;11.07;10.10;;;-40.00;99.90;;;;;;5076260;28;20311;-66
2022/08/24 06:21:23;;;;;;;13.20;9.77;;;-40.00;99.90;;;;;;5075768;28;20215;-71
2022/08/24 06:23:50;;;;;;;10.97;9.87;;;20.90;99.90;;;;;;5079872;28;20199;-72
2022/08/24 06:29:01;;;;;;;16.97;11.13;;;20.90;99.90;;;;;;5078953;28;20182;-70
2022/08/24 06:31:27;;;;;;;11.00;9.77;;;21.00;99.90;;;;;;5076772;28;20172;-68
2022/08/24 06:33:54;;;;;;;14.10;10.83;;;21.10;99.90;;;;;;5077389;28;20240;-68
2022/08/24 06:36:20;;;;;;;13.97;11.20;;;21.10;99.90;;;;;;5079378;28;20189;-72
2022/08/24 06:38:46;;;;;;;15.87;11.97;;;21.30;99.90;;;;;;5087163;28;20173;-72
2022/08/24 06:41:13;;;;;;;26.40;11.87;;;21.30;99.90;;;;;;5078141;28;20486;-74
2022/08/24 06:43:38;;;;;;;11.90;10.73;;;21.30;99.90;;;;;;5075498;28;20214;-70
2022/08/24 06:46:05;;;;;;;15.63;11.77;;;21.40;99.90;;;;;;5075776;28;20184;-72
2022/08/24 06:48:31;;;;;;;14.07;12.60;;;21.40;99.90;;;;;;5081358;28;20221;-71
2022/08/24 06:50:58;;;;;;;15.87;12.27;;;21.30;99.90;;;;;;5078905;28;20189;-71
2022/08/24 06:53:25;;;;;;;17.50;14.17;;;21.20;99.90;;;;;;5076799;28;20175;-72
2022/08/24 06:55:53;;;;;;;17.40;13.97;;;20.50;99.90;;;;;;5077302;28;20583;-72
2022/08/24 06:58:20;;;;;;;14.23;11.97;;;21.70;99.90;;;;;;5079018;28;20175;-67
2022/08/24 07:00:47;;;;;;;13.83;11.93;;;21.80;99.90;;;;;;5076585;28;20468;-69
2022/08/24 07:03:13;;;;;;;13.10;10.03;;;21.90;99.90;;;;;;5076177;28;20180;-67
2022/08/24 07:05:39;;;;;;;12.67;7.70;;;22.00;99.90;;;;;;5076155;28;20183;-72
2022/08/24 07:08:06;;;;;;;9.43;8.53;;;22.10;99.90;;;;;;5076504;28;20249;-70
2022/08/24 07:10:33;;;;;;;11.23;10.03;;;22.10;99.90;;;;;;5080559;28;20197;-73
2022/08/24 07:12:59;;;;;;;12.87;10.63;;;22.10;99.90;;;;;;5075758;28;20176;-74
2022/08/24 07:15:25;;;;;;;12.63;11.33;;;22.20;99.90;;;;;;5076149;28;20224;-71
2022/08/24 07:17:52;;;;;;;14.27;10.90;;;22.10;99.90;;;;;;5076052;28;20553;-72
2022/08/24 07:20:18;;;;;;;15.93;13.07;;;21.90;99.90;;;;;;5075917;28;20183;-69
2022/08/24 07:22:44;;;;;;;19.20;16.80;;;21.00;99.90;;;;;;5076087;28;20309;-71
2022/08/24 07:25:12;;;;;;;16.07;14.57;;;-40.00;99.90;;;;;;5076348;28;20290;-70
2022/08/24 07:27:38;;;;;;;17.23;15.60;;;-40.00;99.90;;;;;;5076161;28;20186;-68
2022/08/24 07:30:06;;;;;;;21.20;18.87;;;-40.00;99.90;;;;;;5080037;28;20191;-69
2022/08/24 07:32:32;;;;;;;21.70;17.70;;;-40.00;99.90;;;;;;5080904;28;20488;-73
2022/08/24 07:34:58;;;;;;;18.13;16.30;;;-40.00;99.90;;;;;;5076220;28;20183;-72
2022/08/24 07:37:24;;;;;;;17.33;15.57;;;-40.00;99.90;;;;;;5075793;28;20186;-71
2022/08/24 07:39:50;;;;;;;17.60;14.97;;;-40.00;99.90;;;;;;5078557;28;20193;-68
2022/08/24 07:42:16;;;;;;;20.43;13.00;;;-40.00;99.90;;;;;;5075148;28;20599;-73
2022/08/24 07:44:42;;;;;;;19.30;15.03;;;-40.00;99.90;;;;;;5081116;28;20233;-68
2022/08/24 07:47:08;;;;;;;17.40;15.47;;;-40.00;99.90;;;;;;5075407;28;20180;-72
2022/08/24 07:49:34;;;;;;;13.47;11.37;;;-40.00;99.90;;;;;;5076015;28;20192;-73
2022/08/24 07:52:00;;;;;;;13.07;11.87;;;-40.00;99.90;;;;;;5076027;28;20186;-71
2022/08/24 07:54:29;;;;;;;12.57;11.57;;;-40.00;99.90;;;;;;5076468;28;20521;-67
2022/08/24 07:56:55;;;;;;;13.47;12.03;;;-40.00;99.90;;;;;;5079012;28;20187;-71
2022/08/24 07:59:21;;;;;;;15.07;11.83;;;-40.00;99.90;;;;;;5082172;28;20217;-72
2022/08/24 08:01:49;;;;;;;13.73;12.63;;;-40.00;99.90;;;;;;5078858;28;20183;-68
2022/08/24 08:04:15;;;;;;;14.27;11.87;;;-40.00;99.90;;;;;;5078415;28;20195;-71
2022/08/24 08:06:41;;;;;;;12.77;11.43;;;-40.00;99.90;;;;;;5079972;28;20203;-66
2022/08/24 08:09:07;;;;;;;14.37;13.03;;;-40.00;99.90;;;;;;5079566;28;20203;-68
2022/08/24 08:11:33;;;;;;;15.57;13.17;;;-40.00;99.90;;;;;;5079422;28;20199;-68
2022/08/24 08:13:59;;;;;;;18.67;14.97;;;-40.00;99.90;;;;;;5077923;28;20179;-66
2022/08/24 08:16:26;;;;;;;15.53;14.03;;;-40.00;99.90;;;;;;5078094;28;20221;-66
2022/08/24 08:18:52;;;;;;;18.47;15.57;;;-40.00;99.90;;;;;;5078612;28;20262;-67
2022/08/24 08:24:14;;;;;;;15.17;13.77;;;-40.00;99.90;;;;;;5079244;28;20256;-67
2022/08/24 08:26:42;;;;;;;25.93;14.27;;;-40.00;99.90;;;;;;5078637;28;20556;-66
2022/08/24 08:29:09;;;;;;;14.20;13.03;;;-40.00;99.90;;;;;;5077761;28;20567;-71
2022/08/24 08:31:36;;;;;;;14.13;12.67;;;-40.00;99.90;;;;;;5077861;28;20179;-68
2022/08/24 08:34:03;;;;;;;15.33;13.20;;;-40.00;99.90;;;;;;5079650;28;20224;-66
2022/08/24 08:36:29;;;;;;;14.23;12.93;;;-40.00;99.90;;;;;;5079036;28;20204;-65
2022/08/24 08:38:55;;;;;;;14.70;13.40;;;-40.00;99.90;;;;;;5078348;28;20187;-64
2022/08/24 08:41:57;;;;;;;14.73;13.40;;;-40.00;99.90;;;;;;5078949;28;20261;-66
2022/08/24 08:44:40;;;;;;;15.43;14.10;;;-40.00;99.90;;;;;;5077865;28;20646;-64
2022/08/24 08:47:15;;;;;;;16.87;13.57;;;-40.00;99.90;;;;;;5077573;28;20175;-66
2022/08/24 08:50:07;;;;;;;15.73;13.13;;;-40.00;99.90;;;;;;5077156;28;20183;-69
2022/08/24 08:52:51;;;;;;;15.17;13.77;;;-40.00;99.90;;;;;;5076155;28;20199;-68
2022/08/24 08:55:44;;;;;;;15.60;14.03;;;-40.00;99.90;;;;;;5077995;28;20229;-67
2022/08/24 08:58:44;;;;;;;15.73;14.17;;;-40.00;99.90;;;;;;5078456;28;20187;-67
2022/08/24 09:01:34;;;;;;;15.73;14.30;;;-40.00;99.90;;;;;;5078147;28;20198;-68
2022/08/24 09:04:11;;;;;;;14.67;13.47;;;-40.00;99.90;;;;;;5077325;28;20199;-64
2022/08/24 09:06:52;;;;;;;13.00;11.73;;;-40.00;99.90;;;;;;5076613;28;20312;-64
2022/08/24 09:09:32;;;;;;;13.30;11.90;;;-40.00;99.90;;;;;;5078227;28;20286;-68
2022/08/24 09:12:09;;;;;;;14.43;11.17;;;-40.00;99.90;;;;;;5077645;28;20178;-68
2022/08/24 09:14:55;;;;;;;11.03;9.97;;;-40.00;99.90;;;;;;5079856;28;20232;-65
2022/08/24 09:17:51;;;;;;;11.13;9.97;;;-40.00;99.90;;;;;;5078142;28;20171;-67
2022/08/24 09:20:58;;;;;;;9.03;8.13;;;-40.00;99.90;;;;;;5023757;28;20680;-66
2022/08/24 09:23:35;;;;;;;9.67;8.83;;;-40.00;99.90;;;;;;5077350;28;20248;-67
2022/08/24 09:26:19;;;;;;;22.77;8.93;;;-40.00;99.90;;;;;;5078139;28;20214;-67
2022/08/24 09:29:14;;;;;;;9.53;6.80;;;-40.00;99.70;;;;;;5077279;28;20519;-66
2022/08/24 09:32:13;;;;;;;10.07;5.73;;;-40.00;99.90;;;;;;5076493;28;20470;-65
2022/08/24 09:35:09;;;;;;;4.73;4.40;;;-40.00;97.60;;;;;;5076982;28;20252;-65
2022/08/24 09:38:05;;;;;;;5.70;5.20;;;-40.00;97.40;;;;;;5077082;28;20175;-65
2022/08/24 09:40:54;;;;;;;6.80;4.83;;;-40.00;97.60;;;;;;5081288;28;20174;-67
2022/08/24 09:43:19;;;;;;;10.23;4.57;;;-40.00;96.90;;;;;;5075320;28;20179;-68
2022/08/24 09:46:23;;;;;;;7.47;3.57;;;-40.00;96.60;;;;;;5082551;28;20183;-69
2022/08/24 09:49:17;;;;;;;3.23;2.93;;;-40.00;96.30;;;;;;5014832;28;20209;-68
2022/08/24 09:51:52;;;;;;;2.80;2.60;;;-40.00;95.10;;;;;;5014592;28;20189;-66
2022/08/24 09:54:47;;;;;;;4.87;2.60;;;-40.00;93.30;;;;;;5058932;28;20196;-72
2022/08/24 09:57:28;;;;;;;2.90;2.70;;;-40.00;94.10;;;;;;5063836;28;20215;-67
2022/08/24 10:00:20;;;;;;;2.10;1.93;;;-40.00;91.90;;;;;;5076898;28;20205;-68
2022/08/24 10:03:06;;;;;;;4.67;3.00;;;-40.00;89.00;;;;;;5075578;28;20187;-68
2022/08/24 10:05:57;;;;;;;5.17;3.00;;;-40.00;90.30;;;;;;5077027;28;20207;-67
2022/08/24 10:08:52;;;;;;;5.07;3.00;;;-40.00;89.70;;;;;;5076778;28;20198;-68
2022/08/24 10:11:26;;;;;;;2.43;2.30;;;-40.00;89.50;;;;;;5076252;28;20194;-67
2022/08/24 10:14:07;;;;;;;2.00;1.90;;;-40.00;90.30;;;;;;5076785;28;20192;-67
2022/08/24 10:16:39;;;;;;;6.40;2.67;;;-40.00;90.00;;;;;;5076717;28;20467;-70
2022/08/24 10:19:29;;;;;;;3.43;3.07;;;-40.00;90.60;;;;;;5075706;28;20183;-68
2022/08/24 10:22:14;;;;;;;3.53;2.50;;;-40.00;90.20;;;;;;5077218;28;20183;-67
2022/08/24 10:24:46;;;;;;;8.73;3.40;;;-40.00;88.10;;;;;;5073799;28;20206;-67
2022/08/24 10:27:19;;;;;;;5.83;2.90;;;-40.00;88.80;;;;;;5076247;28;20175;-67
2022/08/24 10:29:59;;;;;;;2.67;2.47;;;-40.00;88.90;;;;;;5076044;28;20175;-68
2022/08/24 10:32:31;;;;;;;3.53;2.00;;;-40.00;87.30;;;;;;5076523;28;20183;-68
2022/08/24 10:35:11;;;;;;;2.10;1.60;;;-40.00;84.50;;;;;;5075887;28;20268;-66
2022/08/24 10:40:58;;;;;;;3.93;1.93;;;-40.00;83.40;;;;;;5080248;28;20329;-67
2022/08/24 10:44:07;;;;;;;1.93;1.83;;;-40.00;81.10;;;;;;5076131;28;20183;-67
2022/08/24 10:46:35;;;;;;;1.70;1.60;;;-40.00;81.10;;;;;;5067261;28;20193;-69
2022/08/24 10:49:31;;;;;;;4.97;2.53;;;-40.00;78.00;;;;;;5079987;28;20199;-67
2022/08/24 10:52:17;;;;;;;1.97;1.20;;;-40.00;79.10;;;;;;5081194;28;20187;-67
2022/08/24 10:54:44;;;;;;;4.23;1.70;;;-40.00;77.90;;;;;;5075847;28;20597;-68
2022/08/24 10:57:31;;;;;;;5.27;1.67;;;-40.00;77.20;;;;;;5076362;28;20189;-70
2022/08/24 11:00:13;;;;;;;3.07;1.83;;;-40.00;74.70;;;;;;5078034;28;20206;-67
2022/08/24 11:02:43;;;;;;;4.80;2.03;;;-40.00;76.40;;;;;;5080368;28;20304;-67
2022/08/24 11:05:11;;;;;;;1.50;1.40;;;-40.00;74.30;;;;;;5075658;28;20576;-67
2022/08/24 11:07:54;;;;;;;2.20;1.60;;;-40.00;74.60;;;;;;5076584;28;20180;-68
2022/08/24 11:10:27;;;;;;;2.30;1.37;;;-40.00;71.60;;;;;;5075305;28;20478;-66
2022/08/24 11:12:53;;;;;;;2.07;1.20;;;-40.00;70.30;;;;;;5075743;28;20202;-67
2022/08/24 11:15:26;;;;;;;2.50;1.50;;;-40.00;70.20;;;;;;5076437;28;20323;-69
2022/08/24 11:17:56;;;;;;;2.77;2.57;;;-40.00;69.30;;;;;;5075591;28;20186;-67
2022/08/24 11:20:27;;;;;;;5.10;3.47;;;-40.00;67.60;;;;;;5074731;28;20599;-68
2022/08/24 11:23:06;;;;;;;4.30;2.70;;;-40.00;69.70;;;;;;5074581;28;20743;-67
2022/08/24 11:25:36;;;;;;;1.70;1.60;;;-40.00;68.80;;;;;;5090767;28;20202;-67
2022/08/24 11:28:08;;;;;;;5.87;1.80;;;-40.00;64.60;;;;;;5075847;28;20198;-68
2022/08/24 11:30:38;;;;;;;1.93;1.80;;;-40.00;66.80;;;;;;5085003;28;20191;-73
2022/08/24 11:33:05;;;;;;;2.60;1.27;;;-40.00;65.00;;;;;;5079076;28;20591;-68
2022/08/24 11:35:31;;;;;;;3.27;1.50;;;-40.00;63.10;;;;;;5079601;28;20186;-68
2022/08/24 11:38:07;;;;;;;1.60;1.40;;;-40.00;63.10;;;;;;5080893;28;20340;-69
2022/08/24 11:40:38;;;;;;;1.37;1.23;;;-40.00;62.60;;;;;;5086064;28;20597;-75
2022/08/24 11:43:23;;;;;;;6.10;1.63;;;-40.00;61.00;;;;;;5079208;28;20190;-66
2022/08/24 11:46:01;;;;;;;4.00;1.63;;;-40.00;58.30;;;;;;5079225;28;20306;-65
2022/08/24 11:48:42;;;;;;;1.98;1.40;;;-40.00;56.60;;;;;;5079049;28;20175;-67
2022/08/24 11:51:24;;;;;;;1.73;1.35;;;-40.00;57.40;;;;;;5077863;28;20287;-67
2022/08/24 11:53:59;;;;;;;4.40;2.28;;;-40.00;54.90;;;;;;5082851;28;20187;-67
2022/08/24 11:56:29;;;;;;;1.25;0.90;;;-40.00;52.90;;;;;;5079701;28;20484;-68
2022/08/24 11:59:08;;;;;;;3.42;1.38;;;-40.00;49.70;;;;;;5079938;28;20261;-67
2022/08/24 12:01:47;;;;;;;3.83;1.20;;;-40.00;50.00;;;;;;5091082;28;20215;-67
2022/08/24 12:04:24;;;;;;;3.10;1.10;;;-40.00;49.10;;;;;;5078192;28;20633;-68
2022/08/24 12:07:05;;;;;;;1.75;1.63;;;-40.00;50.00;;;;;;5078977;28;20171;-68
2022/08/24 12:09:41;;;;;;;3.03;1.40;;;-40.00;44.80;;;;;;5079395;28;20252;-67
2022/08/24 12:12:07;;;;;;;1.38;1.27;;;-40.00;42.50;;;;;;5083090;28;20170;-67
2022/08/24 12:14:42;;;;;;;1.67;1.58;;;35.20;86.10;;;;;;5083146;28;20179;-70
2022/08/24 12:17:31;;;;;;;1.52;1.48;;;35.00;86.00;;;;;;5070971;28;20269;-76
2022/08/24 12:20:27;;;;;;;1.52;1.48;;;34.00;83.50;;;;;;5080782;28;20198;-72
2022/08/24 12:22:58;;;;;;;2.75;1.38;;;-40.00;44.90;;;;;;5078438;28;20246;-66
2022/08/24 12:28:16;;;;;;;1.63;1.33;;;-18.20;53.30;;;;;;5079055;28;20194;-67
2022/08/24 12:30:43;;;;;;;2.92;1.38;;;34.40;84.90;;;;;;5078982;28;20180;-66
2022/08/24 12:33:12;;;;;;;7.82;1.95;;;34.70;83.80;;;;;;5078561;28;20194;-67
2022/08/24 12:35:49;;;;;;;1.40;1.38;;;34.70;82.80;;;;;;5084539;28;20495;-68
2022/08/24 12:38:18;;;;;;;1.73;1.33;;;1.30;57.30;;;;;;5078303;28;20708;-67
2022/08/24 12:40:54;;;;;;;1.48;1.38;;;6.20;60.60;;;;;;5077837;28;20183;-69
2022/08/24 12:43:36;;;;;;;1.35;0.90;;;7.00;61.70;;;;;;5078182;28;20262;-67
2022/08/24 12:46:02;;;;;;;2.38;1.70;;;6.30;60.40;;;;;;5077666;28;20178;-68
2022/08/24 12:48:41;;;;;;;2.47;1.35;;;3.60;58.80;;;;;;5078776;28;20183;-68
2022/08/24 12:51:36;;;;;;;1.20;1.10;;;7.10;58.30;;;;;;5078570;28;20178;-68
2022/08/24 12:54:33;;;;;;;1.60;1.50;;;8.60;57.30;;;;;;5078987;28;20187;-68
2022/08/24 12:57:01;;;;;;;1.58;1.48;;;14.20;60.40;;;;;;5078896;28;20182;-68
2022/08/24 12:59:41;;;;;;;2.70;1.70;;;18.80;59.10;;;;;;5080499;28;20530;-69
2022/08/24 13:02:15;;;;;;;3.97;1.88;;;18.50;59.20;;;;;;5080730;28;20614;-69
2022/08/24 13:04:41;;;;;;;1.55;1.38;;;19.00;58.50;;;;;;5083953;28;20234;-69
2022/08/24 13:07:07;;;;;;;6.47;1.80;;;18.30;61.30;;;;;;5077880;28;20221;-68
2022/08/24 13:09:44;;;;;;;1.98;1.80;;;19.20;60.80;;;;;;5077852;28;20824;-68
2022/08/24 13:12:40;;;;;;;5.45;2.35;;;21.60;59.60;;;;;;5084953;28;20179;-68
2022/08/24 13:15:30;;;;;;;2.88;1.75;;;21.60;58.50;;;;;;5078121;28;20179;-68